Plainville, Massachusetts
Current Conditions -  °F | °C
As of 9:55 AM on Sunday 23 Nov 2014 (Local Time) from KSFZ Reporting Station
Broken Clouds Broken Clouds  
Wind Chill: 44°   Ceiling: 10000
Heat Index: 46°   Visibility: 10mi
Dew Point: 25°   Wind: 6mph
Humidity: 43%   Direction: 220°SW
Pressure: 30.16"   Gusts: NA
Location:  42°N, 71.33°W
Report Text: KSFZ 231455Z 22005KT 10SM FEW070 BKN100 08/M04 A3016 RMK AO1 52017
Loading
Personal Weather Stations






























Interactive Weather Map New forecast layout! Learn more

10-Day Weather Forecast

Advertisements
Track Severe Weather on mobile